createdAt,value
2017-12-17T21:57:04.046Z,16.00
2017-12-17T22:00:27.129Z,16.43
2017-12-17T22:03:01.121Z,14.63
2017-12-17T22:05:35.368Z,16.40
2017-12-17T22:08:09.450Z,16.47
2017-12-17T22:10:44.092Z,15.10
2017-12-17T22:13:18.093Z,16.87
2017-12-17T22:15:51.756Z,15.63
2017-12-17T22:18:25.447Z,17.20
2017-12-17T22:21:00.526Z,18.00
2017-12-17T22:23:34.915Z,17.00
2017-12-17T22:26:09.104Z,18.40
2017-12-17T22:28:43.028Z,19.67
2017-12-17T22:31:17.857Z,19.47
2017-12-17T22:33:52.046Z,20.00
2017-12-17T22:36:26.729Z,19.67
2017-12-17T22:39:01.087Z,19.40
2017-12-17T22:41:35.981Z,20.70
2017-12-17T22:44:10.056Z,22.33
2017-12-17T22:46:44.067Z,22.43
2017-12-17T22:49:18.054Z,24.43
2017-12-17T22:51:52.135Z,24.13
2017-12-17T22:54:26.194Z,24.40
2017-12-17T22:57:00.274Z,26.40
2017-12-17T22:59:34.104Z,25.57
2017-12-17T23:02:07.878Z,25.67
2017-12-17T23:04:41.945Z,27.97
2017-12-17T23:07:15.896Z,31.60
2017-12-17T23:09:50.075Z,30.83
2017-12-17T23:12:24.738Z,28.93
2017-12-17T23:15:01.826Z,30.50
2017-12-17T23:17:35.633Z,30.43
2017-12-17T23:20:10.057Z,32.57
2017-12-17T23:22:44.326Z,30.97
2017-12-17T23:25:18.121Z,35.87
2017-12-17T23:27:51.947Z,30.63
2017-12-17T23:30:26.013Z,35.57
2017-12-17T23:32:59.966Z,35.37
2017-12-17T23:35:34.167Z,37.13
2017-12-17T23:38:08.631Z,30.70
2017-12-17T23:40:43.038Z,37.17
2017-12-17T23:43:17.197Z,38.60
2017-12-17T23:45:50.989Z,33.30
2017-12-17T23:48:25.114Z,32.80
2017-12-17T23:50:58.982Z,36.33
2017-12-17T23:53:33.032Z,37.30
2017-12-17T23:56:06.708Z,40.97
2017-12-17T23:58:40.419Z,41.17
